Time;durP1;ratioP1;P1;durP2;ratioP2;P2;SDS_P1;SDS_P2;PMS_P1;PMS_P2;Temp;Humidity;BMP_temperature;BMP_pressure;BME280_temperature;BME280_humidity;BME280_pressure;Samples;Min_cycle;Max_cycle;Signal;HPM_P1;HPM_P2
2023/06/13 00:01:01;;;;;;;5.53;3.63;;;;;;;15.78;100.00;92640.59;5107860;28;20439;-72
2023/06/13 00:03:29;;;;;;;6.07;4.32;;;;;;;15.76;100.00;92643.47;5103746;28;20105;-72
2023/06/13 00:06:01;;;;;;;5.50;4.07;;;;;;;15.65;100.00;92646.28;5104460;28;20055;-72
2023/06/13 00:08:31;;;;;;;5.95;3.70;;;;;;;15.58;100.00;92639.53;5101962;28;20074;-72
2023/06/13 00:10:58;;;;;;;6.22;4.65;;;;;;;15.55;100.00;92631.50;5100049;28;20070;-72
2023/06/13 00:13:26;;;;;;;5.63;4.13;;;;;;;15.49;100.00;92630.69;5100644;28;20043;-71
2023/06/13 00:15:56;;;;;;;5.32;3.72;;;;;;;15.47;100.00;92623.19;5108055;28;20036;-71
2023/06/13 00:18:23;;;;;;;4.95;3.25;;;;;;;15.46;100.00;92620.84;5107376;28;20051;-72
2023/06/13 00:20:52;;;;;;;5.30;3.42;;;;;;;15.45;100.00;92619.28;5107782;28;20056;-72
2023/06/13 00:23:20;;;;;;;6.07;4.00;;;;;;;15.44;100.00;92617.72;5107196;28;20047;-72
2023/06/13 00:25:46;;;;;;;5.60;4.00;;;;;;;15.42;100.00;92619.81;5108102;28;21153;-72
2023/06/13 00:28:13;;;;;;;5.78;3.67;;;;;;;15.40;100.00;92617.47;5094335;28;20044;-72
2023/06/13 00:30:40;;;;;;;6.25;4.18;;;;;;;15.32;100.00;92605.78;5107641;28;20083;-72
2023/06/13 00:33:07;;;;;;;6.25;3.88;;;;;;;15.33;100.00;92614.34;5104623;28;20137;-72
2023/06/13 00:35:33;;;;;;;5.35;3.72;;;;;;;15.29;100.00;92608.91;5087248;28;20500;-72
2023/06/13 00:38:01;;;;;;;5.50;3.85;;;;;;;15.27;100.00;92613.53;5103529;28;20489;-72
2023/06/13 00:40:29;;;;;;;5.90;3.90;;;;;;;15.28;100.00;92609.16;5107401;28;20062;-72
2023/06/13 00:42:57;;;;;;;5.20;3.90;;;;;;;15.28;100.00;92615.09;5102798;28;20092;-72
2023/06/13 00:45:25;;;;;;;5.63;3.83;;;;;;;15.27;100.00;92599.84;5106934;28;20047;-72
2023/06/13 00:47:54;;;;;;;5.32;3.92;;;;;;;15.29;100.00;92613.28;5107678;28;20447;-72
2023/06/13 00:50:25;;;;;;;4.88;3.72;;;;;;;15.29;100.00;92608.13;5106889;28;20488;-73
2023/06/13 00:52:53;;;;;;;5.18;4.13;;;;;;;15.27;100.00;92608.34;5107601;28;20089;-72
2023/06/13 00:55:21;;;;;;;5.10;3.65;;;;;;;15.27;100.00;92607.59;5106718;28;20047;-72
2023/06/13 00:57:51;;;;;;;5.60;3.70;;;;;;;15.26;100.00;92611.19;5107653;28;20083;-72
2023/06/13 01:00:19;;;;;;;5.15;3.67;;;;;;;15.28;100.00;92609.16;5107274;28;20044;-72
2023/06/13 01:02:45;;;;;;;5.68;3.22;;;;;;;15.26;100.00;92611.97;5107098;28;20524;-72
2023/06/13 01:05:12;;;;;;;5.22;2.78;;;;;;;15.28;100.00;92612.50;5107112;28;20393;-72
2023/06/13 01:07:40;;;;;;;4.90;3.03;;;;;;;15.26;100.00;92608.59;5092974;28;20086;-72
2023/06/13 01:10:07;;;;;;;4.53;3.17;;;;;;;15.28;100.00;92606.56;5094111;28;20097;-72
2023/06/13 01:12:41;;;;;;;4.30;2.90;;;;;;;15.28;100.00;92611.75;5107341;28;20048;-72
2023/06/13 01:15:15;;;;;;;4.35;2.92;;;;;;;15.22;100.00;92603.94;5107503;28;20047;-72
2023/06/13 01:17:49;;;;;;;4.30;3.00;;;;;;;15.10;100.00;92587.88;5109943;28;20043;-72
2023/06/13 01:20:18;;;;;;;4.55;3.40;;;;;;;15.27;100.00;92616.13;5110594;28;20061;-72
2023/06/13 01:22:54;;;;;;;4.57;3.38;;;;;;;15.30;100.00;92607.88;5110351;28;20047;-72
2023/06/13 01:25:30;;;;;;;4.57;3.55;;;;;;;15.29;100.00;92608.91;5110565;28;20107;-72
2023/06/13 01:27:58;;;;;;;;;;;;;;;15.34;100.00;92613.31;5111005;28;20047;-72
2023/06/13 01:30:27;;;;;;;4.20;3.10;;;;;;;15.07;100.00;92580.59;5110764;28;19993;-72
2023/06/13 01:32:55;;;;;;;6.93;3.33;;;;;;;15.30;100.00;92610.44;5110630;28;20500;-72
2023/06/13 01:35:24;;;;;;;5.15;3.17;;;;;;;15.34;100.00;92618.47;5108920;28;20058;-72
2023/06/13 01:37:52;;;;;;;4.20;2.90;;;;;;;15.34;100.00;92613.31;5110438;28;20039;-72
2023/06/13 01:40:19;;;;;;;5.15;3.63;;;;;;;15.34;100.00;92613.31;5109346;28;20051;-73
2023/06/13 01:42:45;;;;;;;5.13;2.97;;;;;;;15.32;100.00;92621.31;5107969;28;20047;-72
2023/06/13 01:45:13;;;;;;;6.15;3.10;;;;;;;15.31;100.00;92616.38;5100849;28;20507;-72
2023/06/13 01:47:54;;;;;;;4.40;2.85;;;;;;;15.30;100.00;92610.44;5110176;28;20043;-72
2023/06/13 01:50:28;;;;;;;3.25;2.63;;;;;;;15.28;100.00;92612.50;5109881;28;20135;-72
2023/06/13 01:53:02;;;;;;;4.35;3.10;;;;;;;15.29;100.00;92611.50;5110284;28;20039;-72
2023/06/13 01:55:35;;;;;;;7.43;3.00;;;;;;;15.26;100.00;92614.56;5110202;28;20051;-72
2023/06/13 01:58:07;;;;;;;5.40;2.95;;;;;;;15.24;100.00;92608.88;5110323;28;20043;-72
2023/06/13 02:00:35;;;;;;;5.45;3.70;;;;;;;15.25;100.00;92613.03;5109695;28;20044;-72
2023/06/13 02:03:04;;;;;;;5.55;2.95;;;;;;;15.27;100.00;92607.59;5110296;28;20067;-72
2023/06/13 02:05:31;;;;;;;5.47;3.17;;;;;;;15.25;100.00;92609.63;5109909;28;20040;-72
2023/06/13 02:08:01;;;;;;;5.75;3.35;;;;;;;15.25;100.00;92602.66;5109135;28;20104;-72
2023/06/13 02:10:29;;;;;;;4.28;3.20;;;;;;;15.26;100.00;92608.59;5108631;28;20481;-72
2023/06/13 02:12:55;;;;;;;5.18;3.20;;;;;;;15.26;100.00;92609.41;5109105;28;20035;-72
2023/06/13 02:15:22;;;;;;;6.60;3.42;;;;;;;15.08;100.00;92582.16;5109269;28;20488;-72
2023/06/13 02:17:50;;;;;;;5.50;3.90;;;;;;;15.30;100.00;92607.06;5109511;28;20047;-72
2023/06/13 02:20:17;;;;;;;5.32;3.95;;;;;;;15.31;100.00;92611.22;5108146;28;20047;-72
2023/06/13 02:22:44;;;;;;;5.10;3.53;;;;;;;15.33;100.00;92612.53;5109465;28;20100;-72
2023/06/13 02:25:11;;;;;;;5.47;3.17;;;;;;;15.36;100.00;92608.66;5109786;27;20120;-72
2023/06/13 02:27:39;;;;;;;5.22;3.55;;;;;;;15.38;100.00;92608.41;5109663;28;20093;-72
2023/06/13 02:30:08;;;;;;;6.55;4.07;;;;;;;15.40;100.00;92611.50;5109594;28;20079;-72
2023/06/13 02:32:39;;;;;;;6.43;4.55;;;;;;;15.40;100.00;92608.91;5096555;28;20060;-72
2023/06/13 02:35:08;;;;;;;6.93;4.88;;;;;;;15.41;100.00;92611.25;5109455;28;20048;-72
2023/06/13 02:37:34;;;;;;;7.57;4.95;;;;;;;15.41;100.00;92610.50;5109539;28;20100;-72
2023/06/13 02:40:02;;;;;;;6.60;4.63;;;;;;;15.47;100.00;92615.41;5108771;28;20047;-73
2023/06/13 02:42:29;;;;;;;9.80;6.13;;;;;;;15.48;100.00;92622.16;5108792;28;20083;-72
2023/06/13 02:44:56;;;;;;;8.55;5.22;;;;;;;15.46;100.00;92623.44;5109148;28;20089;-72
2023/06/13 02:47:23;;;;;;;11.27;5.78;;;;;;;15.46;100.00;92620.84;5109335;28;20052;-72
2023/06/13 02:49:49;;;;;;;7.68;5.20;;;;;;;15.41;100.00;92613.06;5109122;27;20044;-72
2023/06/13 02:52:19;;;;;;;9.13;4.63;;;;;;;15.34;100.00;92616.69;5102013;28;20094;-72
2023/06/13 02:54:46;;;;;;;9.38;6.50;;;;;;;15.36;100.00;92619.78;5102984;28;20131;-72
2023/06/13 02:57:13;;;;;;;6.97;4.80;;;;;;;15.36;100.00;92621.59;5109241;28;20522;-72
2023/06/13 02:59:39;;;;;;;6.60;4.50;;;;;;;15.29;100.00;92621.84;5108220;28;20039;-72
2023/06/13 03:02:06;;;;;;;7.45;5.15;;;;;;;15.25;100.00;92622.56;5109147;28;20104;-73
2023/06/13 03:04:33;;;;;;;7.72;4.78;;;;;;;15.29;100.00;92628.81;5108576;28;20096;-73
2023/06/13 03:07:01;;;;;;;6.70;4.57;;;;;;;15.26;100.00;92611.19;5108814;28;20101;-72
2023/06/13 03:09:29;;;;;;;7.88;4.45;;;;;;;15.33;100.00;92627.28;5109196;28;20066;-72
2023/06/13 03:11:56;;;;;;;8.10;5.53;;;;;;;15.38;100.00;92629.09;5108991;28;20082;-72
2023/06/13 03:14:23;;;;;;;7.13;4.78;;;;;;;15.41;100.00;92631.19;5108724;28;20569;-72
2023/06/13 03:16:52;;;;;;;8.27;5.30;;;;;;;15.39;100.00;92631.44;5108737;27;20044;-72
2023/06/13 03:19:19;;;;;;;7.40;4.03;;;;;;;15.44;100.00;92633.25;5108913;28;20420;-72
2023/06/13 03:21:45;;;;;;;7.45;4.97;;;;;;;15.46;100.00;92631.97;5108523;28;20048;-72
2023/06/13 03:24:13;;;;;;;7.90;4.93;;;;;;;15.50;100.00;92633.03;5108619;28;20489;-72
2023/06/13 03:26:41;;;;;;;6.82;5.38;;;;;;;15.53;100.00;92630.97;5108262;28;20126;-72
2023/06/13 03:29:08;;;;;;;8.80;5.60;;;;;;;15.49;100.00;92623.72;5107924;28;20044;-72
2023/06/13 03:31:35;;;;;;;8.27;5.63;;;;;;;15.57;100.00;92624.25;5108432;28;20120;-73
2023/06/13 03:34:01;;;;;;;11.90;6.38;;;;;;;15.51;100.00;92615.69;5108272;28;20035;-72
2023/06/13 03:36:28;;;;;;;12.85;7.63;;;;;;;15.59;100.00;92635.13;5107666;28;20489;-73
2023/06/13 03:38:55;;;;;;;11.98;7.85;;;;;;;15.58;100.00;92623.22;5108167;28;20044;-73
2023/06/13 03:41:21;;;;;;;13.10;8.15;;;;;;;15.65;100.00;92634.13;5107758;28;20065;-72
2023/06/13 03:43:50;;;;;;;13.00;8.15;;;;;;;15.68;100.00;92637.97;5108556;28;20452;-72
2023/06/13 03:46:16;;;;;;;14.30;7.90;;;;;;;15.63;100.00;92620.63;5108070;28;20092;-72
2023/06/13 03:48:43;;;;;;;12.85;7.30;;;;;;;15.71;100.00;92643.44;5108459;28;20092;-73
2023/06/13 03:51:10;;;;;;;16.88;8.93;;;;;;;15.65;100.00;92639.28;5107645;28;20047;-73
2023/06/13 03:53:38;;;;;;;10.95;7.40;;;;;;;15.74;100.00;92653.28;5108107;28;20040;-72
2023/06/13 03:56:06;;;;;;;14.10;8.80;;;;;;;15.72;100.00;92655.34;5107988;28;20083;-73
2023/06/13 03:58:33;;;;;;;12.25;8.23;;;;;;;15.66;100.00;92653.00;5108283;28;20036;-73
2023/06/13 04:01:02;;;;;;;12.63;7.50;;;;;;;15.39;100.00;92620.31;5108011;28;20043;-73
2023/06/13 04:03:29;;;;;;;14.65;8.60;;;;;;;15.62;100.00;92652.75;5108101;28;20056;-73
2023/06/13 04:05:56;;;;;;;15.02;8.25;;;;;;;15.55;100.00;92642.63;5108055;28;20054;-73
2023/06/13 04:08:23;;;;;;;12.38;7.57;;;;;;;15.61;100.00;92658.94;5107535;28;20040;-73
2023/06/13 04:10:49;;;;;;;14.68;8.55;;;;;;;15.64;100.00;92655.84;5108096;28;20047;-73
2023/06/13 04:13:16;;;;;;;13.70;8.45;;;;;;;15.70;100.00;92652.22;5108096;28;20438;-73
2023/06/13 04:15:43;;;;;;;14.60;9.30;;;;;;;15.72;100.00;92655.34;5107894;28;20096;-73
2023/06/13 04:18:11;;;;;;;12.73;7.22;;;;;;;15.77;100.00;92652.00;5107618;28;20093;-73
2023/06/13 04:20:38;;;;;;;14.25;8.50;;;;;;;15.79;100.00;92659.50;5107908;28;20055;-72
2023/06/13 04:23:05;;;;;;;14.18;9.07;;;;;;;15.79;100.00;92656.94;5107732;28;20051;-72
2023/06/13 04:25:32;;;;;;;28.48;9.45;;;;;;;15.86;100.00;92667.81;5107807;28;20049;-72
2023/06/13 04:28:00;;;;;;;12.55;7.88;;;;;;;15.93;100.00;92659.84;5107563;28;20047;-73
2023/06/13 04:30:28;;;;;;;15.10;9.48;;;;;;;15.94;100.00;92663.97;5107624;28;20808;-73
2023/06/13 04:32:56;;;;;;;15.82;8.23;;;;;;;16.00;100.00;92671.50;5107607;28;20059;-73
2023/06/13 04:35:26;;;;;;;16.10;9.35;;;;;;;16.09;100.00;92661.41;5107773;28;20044;-73
2023/06/13 04:37:53;;;;;;;13.20;8.55;;;;;;;16.08;100.00;92659.06;5107688;28;20466;-73
2023/06/13 04:40:20;;;;;;;13.00;8.32;;;;;;;16.11;100.00;92669.69;5107151;28;20054;-72
2023/06/13 04:42:51;;;;;;;14.02;8.00;;;;;;;16.15;100.00;92672.56;5107475;28;20075;-73
2023/06/13 04:45:20;;;;;;;12.65;8.05;;;;;;;16.13;100.00;92657.28;5107535;28;20499;-73
2023/06/13 04:47:48;;;;;;;12.27;7.43;;;;;;;16.19;100.00;92675.44;5107759;28;20048;-73
2023/06/13 04:50:15;;;;;;;10.02;6.93;;;;;;;16.23;100.00;92672.06;5107282;28;20130;-73
2023/06/13 04:52:43;;;;;;;10.02;7.25;;;;;;;16.30;100.00;92679.59;5110562;28;20059;-73
2023/06/13 04:55:10;;;;;;;11.70;8.23;;;;;;;16.33;100.00;92689.41;5111697;28;20043;-73
2023/06/13 04:57:37;;;;;;;12.38;7.22;;;;;;;16.35;100.00;92674.41;5111342;28;20493;-73
2023/06/13 05:00:08;;;;;;;14.57;7.63;;;;;;;16.39;100.00;92682.44;5111255;28;20039;-72
2023/06/13 05:02:35;;;;;;;13.18;7.55;;;;;;;16.39;100.00;92678.03;5111304;28;20048;-73
2023/06/13 05:05:04;;;;;;;12.70;7.82;;;;;;;16.48;100.00;92686.06;5110835;28;20480;-73
2023/06/13 05:07:31;;;;;;;10.68;6.88;;;;;;;16.55;100.00;92689.19;5111172;28;20500;-73
2023/06/13 05:09:59;;;;;;;14.48;8.02;;;;;;;16.57;100.00;92686.31;5111213;28;20043;-73
2023/06/13 05:12:26;;;;;;;14.02;8.00;;;;;;;16.48;100.00;92693.84;5111171;28;20051;-73
2023/06/13 05:14:52;;;;;;;15.60;8.50;;;;;;;16.60;100.00;92693.59;5084509;28;20101;-73
2023/06/13 05:17:19;;;;;;;14.05;8.68;;;;;;;16.67;100.00;92690.75;5110335;28;20048;-73
2023/06/13 05:19:46;;;;;;;13.80;8.57;;;;;;;16.49;100.00;92690.22;5084198;28;20043;-73
2023/06/13 05:22:13;;;;;;;12.07;7.90;;;;;;;16.73;100.00;92691.50;5111231;28;20051;-73
2023/06/13 05:24:40;;;;;;;11.77;7.60;;;;;;;16.82;100.00;92685.53;5110905;28;20485;-73
2023/06/13 05:27:08;;;;;;;10.95;7.28;;;;;;;16.82;100.00;92685.53;5110190;28;20048;-73
2023/06/13 05:29:35;;;;;;;10.32;6.95;;;;;;;17.11;100.00;92693.84;5111333;28;20047;-73
2023/06/13 05:32:02;;;;;;;11.30;7.55;;;;;;;17.27;100.00;92692.72;5110505;28;20385;-73
2023/06/13 05:34:29;;;;;;;13.27;7.43;;;;;;;17.43;100.00;92708.28;5111056;28;20488;-73
2023/06/13 05:36:56;;;;;;;10.93;6.90;;;;;;;17.50;100.00;92696.56;5111003;28;20043;-73
2023/06/13 05:39:23;;;;;;;12.27;7.15;;;;;;;17.63;100.00;92704.81;5110788;28;20043;-73
2023/06/13 05:41:49;;;;;;;10.88;7.18;;;;;;;17.70;100.00;92702.75;5110037;28;20504;-73
2023/06/13 05:44:18;;;;;;;13.85;8.10;;;;;;;17.84;100.00;92710.72;5110772;28;20050;-73
2023/06/13 05:46:44;;;;;;;10.80;7.60;;;;;;;17.93;100.00;92712.75;5110627;27;20510;-73
2023/06/13 05:49:12;;;;;;;11.00;7.00;;;;;;;17.88;100.00;92708.38;5111063;28;20052;-73
2023/06/13 05:51:39;;;;;;;10.23;7.25;;;;;;;18.05;100.00;92721.00;5109996;28;20567;-73
2023/06/13 05:54:05;;;;;;;10.70;6.28;;;;;;;18.03;100.00;92715.31;5110942;28;20044;-73
2023/06/13 05:56:33;;;;;;;11.43;7.40;;;;;;;18.23;100.00;92721.47;5110199;28;20101;-73
2023/06/13 05:59:00;;;;;;;11.13;6.90;;;;;;;18.44;100.00;92719.53;5092426;28;20448;-73
2023/06/13 06:01:29;;;;;;;10.35;6.65;;;;;;;18.35;100.00;92685.53;5109913;28;20815;-73
2023/06/13 06:03:56;;;;;;;10.57;6.72;;;;;;;18.68;100.00;92719.63;5109094;28;20044;-73
2023/06/13 06:06:23;;;;;;;13.00;7.20;;;;;;;18.74;100.00;92722.19;5110310;28;20070;-73
2023/06/13 06:08:50;;;;;;;10.07;6.85;;;;;;;18.49;100.00;92714.28;5109637;28;20096;-73
2023/06/13 06:11:16;;;;;;;11.00;6.38;;;;;;;18.26;100.00;92718.34;5110255;28;20043;-73
2023/06/13 06:13:43;;;;;;;12.73;9.35;;;;;;;18.45;100.00;92717.69;5109995;28;20389;-73
2023/06/13 06:16:10;;;;;;;10.65;7.10;;;;;;;17.88;100.00;92726.56;5109514;28;20516;-73
2023/06/13 06:18:41;;;;;;;10.70;6.78;;;;;;;17.84;100.00;92722.94;5109447;28;20610;-73
2023/06/13 06:21:08;;;;;;;11.88;6.72;;;;;;;17.95;100.00;92715.88;5109756;28;20150;-73
2023/06/13 06:23:36;;;;;;;12.02;7.53;;;;;;;18.23;100.00;92704.03;5109606;28;20053;-73
2023/06/13 06:26:02;;;;;;;11.13;7.40;;;;;;;18.61;100.00;92711.31;5109932;28;20510;-73
2023/06/13 06:28:29;;;;;;;9.88;6.53;;;;;;;18.93;100.00;92720.44;5082972;28;20055;-73
2023/06/13 06:30:56;;;;;;;9.77;6.55;;;;;;;19.11;100.00;92717.47;5109347;28;20051;-73
2023/06/13 06:33:23;;;;;;;11.68;6.35;;;;;;;19.18;100.00;92736.13;5109190;28;20051;-73
2023/06/13 06:35:52;;;;;;;10.48;6.70;;;;;;;19.31;100.00;92724.31;5109090;28;20047;-73
2023/06/13 06:38:19;;;;;;;8.18;5.45;;;;;;;19.66;100.00;92730.19;5109036;28;20054;-73
2023/06/13 06:40:46;;;;;;;8.32;5.75;;;;;;;19.75;100.00;92723.31;5109439;28;20047;-73
2023/06/13 06:43:13;;;;;;;8.18;5.88;;;;;;;19.94;100.00;92714.75;5109334;28;20044;-73
2023/06/13 06:45:40;;;;;;;8.95;6.00;;;;;;;19.96;100.00;92724.88;5109217;28;20039;-73
2023/06/13 06:48:06;;;;;;;9.00;5.50;;;;;;;19.55;100.00;92734.75;5109294;28;20525;-73
2023/06/13 06:50:33;;;;;;;7.25;4.93;;;;;;;19.62;100.00;92722.16;5109701;28;20091;-73
2023/06/13 06:53:01;;;;;;;10.07;6.32;;;;;;;19.96;100.00;92691.81;5108836;28;20104;-73
2023/06/13 06:55:28;;;;;;;10.98;6.15;;;;;;;19.97;100.00;92729.06;5102295;28;20097;-74
2023/06/13 06:57:55;;;;;;;7.60;5.20;;;;;;;20.34;100.00;92727.56;5088465;28;20041;-73
2023/06/13 07:00:23;;;;;;;8.40;4.80;;;;;;;20.61;100.00;92733.16;5109184;28;20084;-73
2023/06/13 07:02:50;;;;;;;9.82;5.80;;;;;;;20.79;100.00;92734.22;5108512;28;20051;-74
2023/06/13 07:05:17;;;;;;;9.38;4.97;;;;;;;20.24;100.00;92738.13;5108856;28;20048;-74
2023/06/13 07:07:44;;;;;;;8.35;5.10;;;;;;;20.45;100.00;92711.75;5108450;28;20044;-73
2023/06/13 07:10:13;;;;;;;7.35;4.95;;;;;;;20.78;100.00;92732.66;5109038;28;20049;-73
2023/06/13 07:12:40;;;;;;;6.38;4.50;;;;;;;20.76;100.00;92738.16;5108076;28;20084;-73
2023/06/13 07:15:08;;;;;;;9.10;5.20;;;;;;;20.39;100.00;92732.69;5108136;28;20553;-74
2023/06/13 07:17:34;;;;;;;7.05;4.75;;;;;;;20.57;100.00;92727.75;5108688;27;20045;-74
2023/06/13 07:20:05;;;;;;;7.20;4.63;;;;;;;20.64;100.00;92730.00;5108664;28;20044;-74
2023/06/13 07:22:31;;;;;;;8.15;4.90;;;;;;;20.56;100.00;92726.22;5108717;27;20518;-74
2023/06/13 07:24:58;;;;;;;6.18;4.25;;;;;;;20.13;100.00;92727.81;5108690;28;20472;-74
2023/06/13 07:27:26;;;;;;;6.20;4.70;;;;;;;20.17;100.00;92730.63;5108391;28;20048;-73
2023/06/13 07:29:53;;;;;;;9.80;4.72;;;;;;;20.36;100.00;92725.44;5108595;28;20104;-73
2023/06/13 07:32:20;;;;;;;5.97;4.28;;;;;;;20.61;100.00;92723.53;5107919;27;20052;-73
2023/06/13 07:34:46;;;;;;;5.63;4.32;;;;;;;20.83;100.00;92724.75;5108746;28;20051;-73
2023/06/13 07:37:13;;;;;;;6.10;4.22;;;;;;;20.96;100.00;92718.03;5108277;28;20035;-73
2023/06/13 07:39:40;;;;;;;5.35;4.07;;;;;;;21.15;100.00;92714.59;5108143;28;20055;-74
2023/06/13 07:42:07;;;;;;;5.22;3.63;;;;;;;20.81;100.00;92703.38;5107515;28;20108;-73
2023/06/13 07:44:35;;;;;;;7.25;3.83;;;;;;;21.23;100.00;92725.16;5108543;28;20112;-73
2023/06/13 07:47:02;;;;;;;5.93;4.45;;;;;;;21.21;100.00;92692.56;5108071;28;20089;-73
2023/06/13 07:49:29;;;;;;;6.40;4.45;;;;;;;21.43;100.00;92728.47;5107906;28;20048;-73
2023/06/13 07:51:56;;;;;;;9.52;4.85;;;;;;;21.45;100.00;92710.66;5107813;28;20492;-73
2023/06/13 07:54:23;;;;;;;9.27;5.57;;;;;;;21.27;100.00;92725.34;5107902;28;20092;-73
2023/06/13 07:56:51;;;;;;;6.80;5.00;;;;;;;21.06;100.00;92723.09;5107762;28;20488;-73
2023/06/13 07:59:18;;;;;;;7.55;5.20;;;;;;;20.76;100.00;92722.50;5107747;28;20051;-73
2023/06/13 08:01:46;;;;;;;7.18;5.28;;;;;;;20.94;100.00;92722.78;5107702;28;20609;-73
2023/06/13 08:04:13;;;;;;;6.93;4.50;;;;;;;20.64;100.00;92719.56;5108291;28;20051;-73
2023/06/13 08:06:40;;;;;;;7.00;4.75;;;;;;;20.94;100.00;92707.91;5107811;28;20092;-73
2023/06/13 08:09:11;;;;;;;11.23;5.40;;;;;;;21.04;100.00;92704.34;5108166;28;20126;-73
2023/06/13 08:11:38;;;;;;;7.85;4.70;;;;;;;21.18;100.00;92716.63;5108024;28;20048;-73
2023/06/13 08:14:07;;;;;;;7.65;4.28;;;;;;;21.11;100.00;92708.41;5108365;28;20366;-73
2023/06/13 08:16:34;;;;;;;10.02;4.43;;;;;;;21.35;100.00;92716.06;5107911;28;20047;-73
2023/06/13 08:19:04;;;;;;;7.18;4.13;;;;;;;21.54;100.00;92721.22;5108209;28;20464;-72
2023/06/13 08:21:30;;;;;;;5.55;3.97;;;;;;;21.79;100.00;92719.19;5095495;28;20051;-72
2023/06/13 08:23:59;;;;;;;5.72;4.18;;;;;;;22.07;100.00;92715.78;5105790;28;20441;-73
2023/06/13 08:26:27;;;;;;;6.32;3.35;;;;;;;22.29;100.00;92718.44;5107138;28;20070;-73
2023/06/13 08:28:54;;;;;;;4.65;2.88;;;;;;;22.57;100.00;92722.84;5107734;28;20118;-73
2023/06/13 08:31:23;;;;;;;5.38;2.85;;;;;;;22.71;97.71;92722.78;5107275;28;20040;-73
2023/06/13 08:33:50;;;;;;;6.53;2.80;;;;;;;22.94;98.90;92722.78;5107504;28;20507;-73
2023/06/13 08:36:18;;;;;;;3.65;2.17;;;;;;;22.93;98.78;92700.28;5107963;28;20048;-73
2023/06/13 08:38:45;;;;;;;3.75;2.50;;;;;;;23.11;98.07;92722.13;5107156;28;20085;-73
2023/06/13 08:41:12;;;;;;;4.28;3.05;;;;;;;23.23;99.79;92717.09;5107492;28;20456;-73
2023/06/13 08:43:39;;;;;;;3.72;2.80;;;;;;;23.39;97.82;92710.69;5106901;28;20055;-73
2023/06/13 08:46:06;;;;;;;4.85;2.60;;;;;;;23.64;94.94;92718.97;5107462;28;20043;-73
2023/06/13 08:48:33;;;;;;;7.80;3.63;;;;;;;23.70;95.81;92704.66;5106858;28;20786;-73
2023/06/13 08:51:02;;;;;;;3.45;2.13;;;;;;;23.75;92.07;92707.88;5107459;28;20043;-73
2023/06/13 08:53:33;;;;;;;4.90;3.30;;;;;;;23.96;93.82;92707.31;5107522;28;20164;-73
2023/06/13 08:56:07;;;;;;;5.03;2.50;;;;;;;23.86;88.23;92708.41;5107023;28;20044;-73
2023/06/13 08:58:39;;;;;;;3.22;2.50;;;;;;;24.00;93.67;92708.25;5107827;28;20976;-73
2023/06/13 09:01:09;;;;;;;4.72;2.90;;;;;;;23.90;93.96;92711.19;5107481;28;20048;-73
2023/06/13 09:03:37;;;;;;;4.45;3.17;;;;;;;23.89;91.86;92712.25;5107435;28;20048;-73
2023/06/13 09:06:05;;;;;;;3.55;2.65;;;;;;;23.79;92.33;92715.16;5107038;28;20055;-73
2023/06/13 09:08:34;;;;;;;6.20;3.10;;;;;;;23.69;92.71;92710.97;5106642;28;20054;-72
2023/06/13 09:11:01;;;;;;;7.22;3.25;;;;;;;23.65;93.38;92710.78;5107066;28;20069;-72
2023/06/13 09:13:30;;;;;;;4.35;2.90;;;;;;;23.65;93.17;92697.69;5107216;28;20108;-72
2023/06/13 09:15:57;;;;;;;5.53;3.95;;;;;;;23.68;93.28;92706.78;5107224;28;20089;-73
2023/06/13 09:18:25;;;;;;;7.97;5.40;;;;;;;23.49;90.45;92695.50;5107352;28;20065;-73
2023/06/13 09:20:52;;;;;;;9.65;6.60;;;;;;;23.49;92.00;92713.06;5107030;28;20187;-72
2023/06/13 09:23:19;;;;;;;12.07;7.95;;;;;;;23.20;91.85;92686.22;5106662;28;20121;-73
2023/06/13 09:25:49;;;;;;;11.45;7.57;;;;;;;23.05;92.95;92702.34;5106989;28;20397;-73
2023/06/13 09:28:30;;;;;;;10.23;7.15;;;;;;;23.10;95.25;92710.09;5106897;28;20050;-73
2023/06/13 09:30:57;;;;;;;11.13;7.18;;;;;;;22.78;96.38;92670.00;5106808;28;20048;-73
2023/06/13 09:33:24;;;;;;;9.52;6.90;;;;;;;23.03;96.38;92707.88;5107195;28;20048;-73
2023/06/13 09:35:51;;;;;;;10.50;7.18;;;;;;;23.04;96.32;92706.03;5099961;28;20044;-73
2023/06/13 09:38:23;;;;;;;11.45;7.00;;;;;;;23.15;95.43;92711.81;5102614;28;20578;-72
2023/06/13 09:40:54;;;;;;;8.80;6.20;;;;;;;23.09;91.74;92698.84;5110365;28;20477;-73
2023/06/13 09:43:21;;;;;;;9.65;6.47;;;;;;;23.31;94.04;92697.25;5110865;28;20353;-73
2023/06/13 09:45:48;;;;;;;9.00;5.97;;;;;;;23.54;93.04;92706.91;5110750;27;20124;-73
2023/06/13 09:48:15;;;;;;;7.57;5.47;;;;;;;23.60;88.11;92705.69;5110608;28;20051;-73
2023/06/13 09:50:43;;;;;;;8.20;6.25;;;;;;;23.68;91.75;92706.78;5110621;27;20039;-73
2023/06/13 09:53:10;;;;;;;9.85;6.35;;;;;;;23.58;91.02;92692.91;5110076;28;20069;-73
2023/06/13 09:55:37;;;;;;;9.75;7.03;;;;;;;23.58;92.55;92695.53;5109965;28;20069;-73
2023/06/13 09:58:05;;;;;;;12.35;6.72;;;;;;;23.68;92.16;92689.22;5110649;28;20450;-73
2023/06/13 10:00:32;;;;;;;9.13;6.70;;;;;;;23.54;92.91;92693.78;5110459;28;20113;-73
2023/06/13 10:02:59;;;;;;;10.57;6.28;;;;;;;23.45;92.89;92689.31;5110107;28;20055;-73
2023/06/13 10:05:26;;;;;;;10.73;7.43;;;;;;;23.63;93.82;92691.97;5110099;28;20112;-73
2023/06/13 10:07:53;;;;;;;11.20;7.63;;;;;;;23.75;92.09;92680.91;5109563;28;20052;-74
2023/06/13 10:10:21;;;;;;;9.48;6.93;;;;;;;24.11;92.66;92684.41;5110041;28;20048;-73
2023/06/13 10:12:49;;;;;;;10.82;6.82;;;;;;;24.45;89.87;92684.69;5109456;28;20052;-73
2023/06/13 10:15:24;;;;;;;8.52;6.88;;;;;;;24.63;86.50;92667.09;5110379;28;20093;-73
2023/06/13 10:17:57;;;;;;;9.68;6.28;;;;;;;25.15;85.72;92673.31;5109517;28;20041;-73
2023/06/13 10:20:24;;;;;;;9.75;6.25;;;;;;;25.35;80.30;92672.63;5110254;28;20072;-73
2023/06/13 10:22:51;;;;;;;12.15;7.28;;;;;;;25.45;81.83;92665.47;5108764;28;20035;-73
2023/06/13 10:25:21;;;;;;;9.98;7.07;;;;;;;25.77;80.06;92668.59;5109283;28;20101;-73
2023/06/13 10:27:53;;;;;;;9.18;6.43;;;;;;;25.70;80.43;92653.31;5110171;28;20112;-73
2023/06/13 10:30:44;;;;;;;9.35;6.65;;;;;;;26.08;79.63;92659.56;5109457;28;20108;-73
2023/06/13 10:33:32;;;;;;;9.10;6.35;;;;;;;26.34;76.88;92660.50;5089000;28;20047;-73
2023/06/13 10:36:16;;;;;;;9.75;7.35;;;;;;;26.58;75.79;92653.78;5108640;28;20043;-73
2023/06/13 10:39:23;;;;;;;9.63;7.53;;;;;;;26.76;75.63;92657.03;5109680;28;20043;-73
2023/06/13 10:42:02;;;;;;;13.18;7.25;;;;;;;26.85;74.13;92657.72;5100694;28;20512;-73
2023/06/13 10:44:38;;;;;;;8.82;6.57;;;;;;;26.93;72.97;92654.22;5109133;28;20108;-73
2023/06/13 10:47:07;;;;;;;10.38;7.57;;;;;;;27.05;71.34;92648.22;5109863;28;20062;-73
2023/06/13 10:49:38;;;;;;;11.45;6.85;;;;;;;27.11;71.55;92655.91;5109527;28;20040;-73
2023/06/13 10:52:10;;;;;;;8.13;6.38;;;;;;;27.10;70.71;92651.72;5109058;28;20408;-74
2023/06/13 10:54:37;;;;;;;9.65;6.78;;;;;;;27.06;72.04;92660.31;5109621;28;20055;-73
2023/06/13 10:57:05;;;;;;;9.75;7.75;;;;;;;26.99;73.12;92654.03;5109490;28;20096;-74
2023/06/13 10:59:37;;;;;;;11.95;7.30;;;;;;;26.68;74.43;92650.75;5093276;28;20052;-74
2023/06/13 11:02:09;;;;;;;9.40;6.53;;;;;;;26.52;74.20;92664.50;5099540;28;20054;-74
2023/06/13 11:04:39;;;;;;;8.48;6.22;;;;;;;26.27;74.95;92661.00;5108308;27;20493;-73
2023/06/13 11:07:26;;;;;;;8.52;6.35;;;;;;;25.93;77.56;92653.03;5095288;28;20048;-73
2023/06/13 11:10:03;;;;;;;11.52;6.00;;;;;;;25.73;76.83;92657.94;5089718;28;20044;-73
2023/06/13 11:12:30;;;;;;;8.98;5.97;;;;;;;25.61;78.79;92648.09;5101401;28;20408;-73
2023/06/13 11:14:59;;;;;;;7.75;5.05;;;;;;;25.39;79.48;92657.00;5108706;28;20051;-73
2023/06/13 11:17:28;;;;;;;6.40;4.53;;;;;;;25.23;79.31;92654.13;5108700;28;20089;-73
2023/06/13 11:19:55;;;;;;;6.93;4.53;;;;;;;25.08;80.73;92647.53;5108281;28;20055;-73
2023/06/13 11:22:23;;;;;;;5.35;3.00;;;;;;;25.04;79.40;92649.25;5081727;28;20049;-73
2023/06/13 11:24:51;;;;;;;6.25;3.13;;;;;;;24.81;78.45;92634.47;5108670;28;20051;-73
2023/06/13 11:27:18;;;;;;;4.88;2.80;;;;;;;24.81;78.86;92636.31;5093411;28;20048;-74
2023/06/13 11:29:45;;;;;;;4.65;3.03;;;;;;;24.88;79.17;92647.13;5101790;28;20389;-73